sensor_id;sensor_type;location;lat;lon;timestamp;noise_LAeq;noise_LA_min;noise_LA_max;noise_LA01;noise_LA95
38366;Laerm;943;51.568;6.998;2023-02-28T00:01:44;47.32;33.41;63.60;;
38366;Laerm;943;51.568;6.998;2023-02-28T00:04:12;45.76;34.44;59.65;;
38366;Laerm;943;51.568;6.998;2023-02-28T00:06:40;41.92;34.08;54.54;;
38366;Laerm;943;51.568;6.998;2023-02-28T00:09:10;40.50;35.45;46.68;;
38366;Laerm;943;51.568;6.998;2023-02-28T00:11:37;42.90;36.26;51.40;;
38366;Laerm;943;51.568;6.998;2023-02-28T00:14:05;41.23;35.25;48.65;;
38366;Laerm;943;51.568;6.998;2023-02-28T00:16:33;41.72;35.53;50.92;;
38366;Laerm;943;51.568;6.998;2023-02-28T00:19:01;41.62;36.75;48.31;;
38366;Laerm;943;51.568;6.998;2023-02-28T00:21:29;41.79;35.69;49.62;;
38366;Laerm;943;51.568;6.998;2023-02-28T00:23:58;40.34;35.14;45.27;;
38366;Laerm;943;51.568;6.998;2023-02-28T00:26:25;42.51;36.10;48.81;;
38366;Laerm;943;51.568;6.998;2023-02-28T00:28:54;38.48;33.85;44.60;;
38366;Laerm;943;51.568;6.998;2023-02-28T00:31:22;38.25;33.63;48.74;;
38366;Laerm;943;51.568;6.998;2023-02-28T00:33:51;38.68;35.03;43.28;;
38366;Laerm;943;51.568;6.998;2023-02-28T00:36:20;40.95;33.55;54.54;;
38366;Laerm;943;51.568;6.998;2023-02-28T00:38:48;41.77;34.99;51.84;;
38366;Laerm;943;51.568;6.998;2023-02-28T00:41:16;42.79;37.74;48.61;;
38366;Laerm;943;51.568;6.998;2023-02-28T00:43:44;42.32;35.80;57.75;;
38366;Laerm;943;51.568;6.998;2023-02-28T00:46:12;38.15;32.83;47.16;;
38366;Laerm;943;51.568;6.998;2023-02-28T00:48:40;42.08;32.88;56.94;;
38366;Laerm;943;51.568;6.998;2023-02-28T00:51:08;40.89;35.30;50.37;;
38366;Laerm;943;51.568;6.998;2023-02-28T00:53:36;39.70;33.80;48.55;;
38366;Laerm;943;51.568;6.998;2023-02-28T00:56:05;39.75;34.65;47.37;;
38366;Laerm;943;51.568;6.998;2023-02-28T00:58:33;39.59;34.80;49.11;;
38366;Laerm;943;51.568;6.998;2023-02-28T01:01:01;40.05;32.30;47.43;;
38366;Laerm;943;51.568;6.998;2023-02-28T01:03:29;41.25;32.92;48.39;;
38366;Laerm;943;51.568;6.998;2023-02-28T01:05:58;41.83;35.75;52.98;;
38366;Laerm;943;51.568;6.998;2023-02-28T01:08:27;40.31;33.44;49.31;;
38366;Laerm;943;51.568;6.998;2023-02-28T01:10:55;40.72;35.43;47.59;;
38366;Laerm;943;51.568;6.998;2023-02-28T01:13:24;39.93;35.00;50.24;;
38366;Laerm;943;51.568;6.998;2023-02-28T01:15:56;39.96;35.47;46.61;;
38366;Laerm;943;51.568;6.998;2023-02-28T01:18:24;37.85;33.00;53.21;;
38366;Laerm;943;51.568;6.998;2023-02-28T01:20:53;41.15;34.71;48.66;;
38366;Laerm;943;51.568;6.998;2023-02-28T01:23:23;41.20;35.37;49.86;;
38366;Laerm;943;51.568;6.998;2023-02-28T01:25:52;40.77;35.75;50.35;;
38366;Laerm;943;51.568;6.998;2023-02-28T01:28:21;39.45;33.76;49.16;;
38366;Laerm;943;51.568;6.998;2023-02-28T01:30:51;37.96;34.15;45.59;;
38366;Laerm;943;51.568;6.998;2023-02-28T01:33:19;41.50;36.33;48.88;;
38366;Laerm;943;51.568;6.998;2023-02-28T01:35:47;39.97;36.07;53.42;;
38366;Laerm;943;51.568;6.998;2023-02-28T01:38:16;38.05;34.38;42.62;;
38366;Laerm;943;51.568;6.998;2023-02-28T01:40:50;40.41;34.07;49.29;;
38366;Laerm;943;51.568;6.998;2023-02-28T01:43:31;39.41;33.66;48.21;;
38366;Laerm;943;51.568;6.998;2023-02-28T01:46:00;39.45;33.58;46.09;;
38366;Laerm;943;51.568;6.998;2023-02-28T01:48:49;38.93;33.76;46.85;;
38366;Laerm;943;51.568;6.998;2023-02-28T01:54:15;41.29;35.65;48.70;;
38366;Laerm;943;51.568;6.998;2023-02-28T01:57:07;41.34;36.06;48.76;;
38366;Laerm;943;51.568;6.998;2023-02-28T02:00:01;41.12;35.73;48.03;;
38366;Laerm;943;51.568;6.998;2023-02-28T02:02:42;39.92;35.22;48.93;;
38366;Laerm;943;51.568;6.998;2023-02-28T02:05:26;40.39;35.23;57.34;;
38366;Laerm;943;51.568;6.998;2023-02-28T02:08:28;38.67;32.54;45.96;;
38366;Laerm;943;51.568;6.998;2023-02-28T02:11:02;40.37;32.82;47.66;;
38366;Laerm;943;51.568;6.998;2023-02-28T02:17:26;41.63;35.80;48.50;;
38366;Laerm;943;51.568;6.998;2023-02-28T02:21:32;40.29;35.51;48.95;;
38366;Laerm;943;51.568;6.998;2023-02-28T02:32:04;42.09;35.92;49.29;;
38366;Laerm;943;51.568;6.998;2023-02-28T02:40:30;44.19;36.05;52.72;;
38366;Laerm;943;51.568;6.998;2023-02-28T02:43:19;44.23;36.81;54.23;;
38366;Laerm;943;51.568;6.998;2023-02-28T02:46:03;42.28;37.76;49.10;;
38366;Laerm;943;51.568;6.998;2023-02-28T02:48:36;45.19;39.36;52.30;;
38366;Laerm;943;51.568;6.998;2023-02-28T02:51:17;44.47;35.88;50.73;;
38366;Laerm;943;51.568;6.998;2023-02-28T02:54:12;43.10;35.52;52.08;;
38366;Laerm;943;51.568;6.998;2023-02-28T02:56:49;44.17;38.40;50.83;;
38366;Laerm;943;51.568;6.998;2023-02-28T02:59:23;43.06;37.68;50.82;;
38366;Laerm;943;51.568;6.998;2023-02-28T03:02:06;42.38;35.54;49.29;;
38366;Laerm;943;51.568;6.998;2023-02-28T03:04:50;45.00;39.51;53.75;;
38366;Laerm;943;51.568;6.998;2023-02-28T03:07:25;47.51;38.11;62.00;;
38366;Laerm;943;51.568;6.998;2023-02-28T03:09:58;49.35;36.96;69.18;;
38366;Laerm;943;51.568;6.998;2023-02-28T03:12:51;48.57;37.71;66.13;;
38366;Laerm;943;51.568;6.998;2023-02-28T03:22:16;52.30;36.55;69.42;;
38366;Laerm;943;51.568;6.998;2023-02-28T03:25:08;52.78;40.37;69.90;;
38366;Laerm;943;51.568;6.998;2023-02-28T03:31:29;50.16;38.34;69.60;;
38366;Laerm;943;51.568;6.998;2023-02-28T03:34:27;46.27;40.90;55.05;;
38366;Laerm;943;51.568;6.998;2023-02-28T03:37:10;45.73;39.85;52.13;;
38366;Laerm;943;51.568;6.998;2023-02-28T03:40:14;45.92;40.19;56.04;;
38366;Laerm;943;51.568;6.998;2023-02-28T03:42:52;45.99;40.52;51.96;;
38366;Laerm;943;51.568;6.998;2023-02-28T03:45:31;46.68;41.61;54.53;;
38366;Laerm;943;51.568;6.998;2023-02-28T03:48:41;47.49;41.04;56.97;;
38366;Laerm;943;51.568;6.998;2023-02-28T03:51:19;46.91;42.86;52.71;;
38366;Laerm;943;51.568;6.998;2023-02-28T03:54:09;47.51;42.50;54.41;;
38366;Laerm;943;51.568;6.998;2023-02-28T04:00:21;46.54;41.20;56.35;;
38366;Laerm;943;51.568;6.998;2023-02-28T04:02:56;47.35;41.78;53.62;;
38366;Laerm;943;51.568;6.998;2023-02-28T04:05:25;49.55;43.33;56.04;;
38366;Laerm;943;51.568;6.998;2023-02-28T04:07:53;50.33;42.64;65.86;;
38366;Laerm;943;51.568;6.998;2023-02-28T04:10:21;49.94;42.98;66.69;;
38366;Laerm;943;51.568;6.998;2023-02-28T04:12:49;51.71;43.25;69.70;;
38366;Laerm;943;51.568;6.998;2023-02-28T04:15:17;47.01;41.92;52.90;;
38366;Laerm;943;51.568;6.998;2023-02-28T04:17:45;47.91;42.11;55.07;;
38366;Laerm;943;51.568;6.998;2023-02-28T04:20:13;48.21;42.93;55.72;;
38366;Laerm;943;51.568;6.998;2023-02-28T04:22:41;48.10;42.36;54.65;;
38366;Laerm;943;51.568;6.998;2023-02-28T04:25:09;49.69;43.88;64.05;;
38366;Laerm;943;51.568;6.998;2023-02-28T04:27:37;50.59;44.67;64.08;;
38366;Laerm;943;51.568;6.998;2023-02-28T04:30:07;48.65;43.50;56.17;;
38366;Laerm;943;51.568;6.998;2023-02-28T04:32:35;48.90;44.50;54.06;;
38366;Laerm;943;51.568;6.998;2023-02-28T04:35:03;48.92;43.82;55.33;;
38366;Laerm;943;51.568;6.998;2023-02-28T04:37:31;47.64;43.04;63.23;;
38366;Laerm;943;51.568;6.998;2023-02-28T04:40:03;49.07;42.86;56.93;;
38366;Laerm;943;51.568;6.998;2023-02-28T04:42:31;48.35;43.15;54.11;;
38366;Laerm;943;51.568;6.998;2023-02-28T04:45:05;48.70;43.83;67.56;;
38366;Laerm;943;51.568;6.998;2023-02-28T04:47:32;48.75;43.93;61.74;;
38366;Laerm;943;51.568;6.998;2023-02-28T04:50:00;50.98;43.33;65.00;;
38366;Laerm;943;51.568;6.998;2023-02-28T04:52:28;47.50;42.49;53.96;;
38366;Laerm;943;51.568;6.998;2023-02-28T04:54:56;49.81;45.93;56.29;;
38366;Laerm;943;51.568;6.998;2023-02-28T04:57:24;48.60;44.06;62.57;;
38366;Laerm;943;51.568;6.998;2023-02-28T04:59:52;48.49;43.06;55.26;;
38366;Laerm;943;51.568;6.998;2023-02-28T05:02:20;49.49;44.79;56.97;;
38366;Laerm;943;51.568;6.998;2023-02-28T05:04:48;48.87;42.99;55.44;;
38366;Laerm;943;51.568;6.998;2023-02-28T05:07:16;49.44;45.62;55.83;;
38366;Laerm;943;51.568;6.998;2023-02-28T05:09:44;49.46;45.32;63.05;;
38366;Laerm;943;51.568;6.998;2023-02-28T05:12:12;49.10;44.81;54.82;;
38366;Laerm;943;51.568;6.998;2023-02-28T05:14:40;48.47;43.50;53.51;;
38366;Laerm;943;51.568;6.998;2023-02-28T05:17:09;49.66;45.43;62.30;;
38366;Laerm;943;51.568;6.998;2023-02-28T05:19:38;51.05;44.05;64.96;;
38366;Laerm;943;51.568;6.998;2023-02-28T05:22:15;48.95;43.82;61.29;;
38366;Laerm;943;51.568;6.998;2023-02-28T05:24:44;49.92;45.00;64.48;;
38366;Laerm;943;51.568;6.998;2023-02-28T05:27:12;50.54;45.98;57.45;;
38366;Laerm;943;51.568;6.998;2023-02-28T05:29:40;49.09;44.08;58.17;;
38366;Laerm;943;51.568;6.998;2023-02-28T05:32:14;48.61;43.87;55.56;;
38366;Laerm;943;51.568;6.998;2023-02-28T05:34:42;49.35;44.22;55.65;;
38366;Laerm;943;51.568;6.998;2023-02-28T05:37:13;48.77;44.85;56.32;;
38366;Laerm;943;51.568;6.998;2023-02-28T05:39:42;50.70;45.04;61.96;;
38366;Laerm;943;51.568;6.998;2023-02-28T05:42:10;48.64;44.29;58.96;;
38366;Laerm;943;51.568;6.998;2023-02-28T05:44:38;52.88;43.90;67.81;;
38366;Laerm;943;51.568;6.998;2023-02-28T05:47:06;47.99;44.02;52.91;;
38366;Laerm;943;51.568;6.998;2023-02-28T05:49:33;48.59;43.87;55.88;;
38366;Laerm;943;51.568;6.998;2023-02-28T05:52:03;47.43;43.72;57.13;;
38366;Laerm;943;51.568;6.998;2023-02-28T05:54:32;48.34;44.08;65.23;;
38366;Laerm;943;51.568;6.998;2023-02-28T05:57:00;50.31;45.32;63.27;;
38366;Laerm;943;51.568;6.998;2023-02-28T05:59:28;46.89;43.36;56.57;;
38366;Laerm;943;51.568;6.998;2023-02-28T06:01:55;47.45;42.11;55.18;;
38366;Laerm;943;51.568;6.998;2023-02-28T06:04:23;47.48;43.25;65.10;;
38366;Laerm;943;51.568;6.998;2023-02-28T06:06:58;47.30;43.58;57.65;;
38366;Laerm;943;51.568;6.998;2023-02-28T06:09:26;48.40;44.12;69.91;;
38366;Laerm;943;51.568;6.998;2023-02-28T06:11:57;50.94;44.75;62.50;;
38366;Laerm;943;51.568;6.998;2023-02-28T06:14:25;50.91;42.76;65.65;;
38366;Laerm;943;51.568;6.998;2023-02-28T06:16:53;50.48;43.45;68.14;;
38366;Laerm;943;51.568;6.998;2023-02-28T06:19:22;50.77;44.89;63.38;;
38366;Laerm;943;51.568;6.998;2023-02-28T06:21:55;49.08;43.61;66.03;;
38366;Laerm;943;51.568;6.998;2023-02-28T06:24:26;47.12;43.12;58.16;;
38366;Laerm;943;51.568;6.998;2023-02-28T06:26:58;47.19;44.01;53.52;;
38366;Laerm;943;51.568;6.998;2023-02-28T06:29:34;48.69;43.63;69.04;;
38366;Laerm;943;51.568;6.998;2023-02-28T06:32:02;53.00;44.50;70.08;;
38366;Laerm;943;51.568;6.998;2023-02-28T06:34:30;51.79;44.36;68.83;;
38366;Laerm;943;51.568;6.998;2023-02-28T06:36:58;48.65;43.85;69.04;;
38366;Laerm;943;51.568;6.998;2023-02-28T06:39:31;50.00;43.65;69.91;;
38366;Laerm;943;51.568;6.998;2023-02-28T06:41:59;48.23;44.06;60.71;;
38366;Laerm;943;51.568;6.998;2023-02-28T06:44:27;48.94;44.15;56.17;;
38366;Laerm;943;51.568;6.998;2023-02-28T06:47:03;47.83;43.81;59.97;;
38366;Laerm;943;51.568;6.998;2023-02-28T06:49:35;47.02;43.75;54.05;;
38366;Laerm;943;51.568;6.998;2023-02-28T06:52:03;46.74;43.21;53.73;;
38366;Laerm;943;51.568;6.998;2023-02-28T06:54:31;48.58;43.65;70.35;;
38366;Laerm;943;51.568;6.998;2023-02-28T06:56:59;47.05;43.20;53.21;;
38366;Laerm;943;51.568;6.998;2023-02-28T06:59:27;54.51;44.07;71.78;;
38366;Laerm;943;51.568;6.998;2023-02-28T07:01:55;51.96;43.23;69.19;;
38366;Laerm;943;51.568;6.998;2023-02-28T07:04:23;48.23;43.51;65.37;;
38366;Laerm;943;51.568;6.998;2023-02-28T07:06:51;48.81;44.21;68.93;;
38366;Laerm;943;51.568;6.998;2023-02-28T07:09:18;50.74;43.30;79.42;;
38366;Laerm;943;51.568;6.998;2023-02-28T07:11:46;49.73;43.34;59.28;;
38366;Laerm;943;51.568;6.998;2023-02-28T07:14:14;47.47;43.11;54.77;;
38366;Laerm;943;51.568;6.998;2023-02-28T07:16:42;48.61;43.67;66.53;;
38366;Laerm;943;51.568;6.998;2023-02-28T07:19:10;47.99;44.38;53.23;;
38366;Laerm;943;51.568;6.998;2023-02-28T07:21:37;50.64;43.45;69.20;;
38366;Laerm;943;51.568;6.998;2023-02-28T07:24:06;51.84;44.08;69.59;;
38366;Laerm;943;51.568;6.998;2023-02-28T07:26:34;47.45;43.35;57.62;;
38366;Laerm;943;51.568;6.998;2023-02-28T07:29:02;48.10;42.54;59.99;;
38366;Laerm;943;51.568;6.998;2023-02-28T07:31:35;46.10;41.43;52.55;;
38366;Laerm;943;51.568;6.998;2023-02-28T07:34:05;49.15;42.44;61.47;;
38366;Laerm;943;51.568;6.998;2023-02-28T07:36:33;45.91;42.06;52.31;;
38366;Laerm;943;51.568;6.998;2023-02-28T07:39:01;47.06;43.98;55.33;;
38366;Laerm;943;51.568;6.998;2023-02-28T07:41:29;48.37;43.45;60.79;;
38366;Laerm;943;51.568;6.998;2023-02-28T07:43:57;48.30;42.60;61.36;;
38366;Laerm;943;51.568;6.998;2023-02-28T07:46:27;47.32;42.27;61.68;;
38366;Laerm;943;51.568;6.998;2023-02-28T07:48:57;48.90;43.00;68.21;;
38366;Laerm;943;51.568;6.998;2023-02-28T07:51:27;45.56;41.32;56.68;;
38366;Laerm;943;51.568;6.998;2023-02-28T07:53:56;51.36;42.08;68.75;;
38366;Laerm;943;51.568;6.998;2023-02-28T07:56:24;52.28;42.09;65.53;;
38366;Laerm;943;51.568;6.998;2023-02-28T07:58:52;47.69;42.23;58.89;;
38366;Laerm;943;51.568;6.998;2023-02-28T08:01:20;51.90;40.72;70.91;;
38366;Laerm;943;51.568;6.998;2023-02-28T08:03:49;49.87;41.08;70.96;;
38366;Laerm;943;51.568;6.998;2023-02-28T08:06:23;47.76;40.14;67.35;;
38366;Laerm;943;51.568;6.998;2023-02-28T08:08:53;50.16;42.20;61.86;;
38366;Laerm;943;51.568;6.998;2023-02-28T08:11:22;50.62;41.46;65.12;;
38366;Laerm;943;51.568;6.998;2023-02-28T08:13:49;50.55;41.78;64.17;;
38366;Laerm;943;51.568;6.998;2023-02-28T08:16:18;45.18;40.77;53.38;;
38366;Laerm;943;51.568;6.998;2023-02-28T08:18:52;45.42;41.06;57.73;;
38366;Laerm;943;51.568;6.998;2023-02-28T08:21:21;46.49;41.69;56.94;;
38366;Laerm;943;51.568;6.998;2023-02-28T08:23:51;46.60;41.95;57.16;;
38366;Laerm;943;51.568;6.998;2023-02-28T08:26:20;45.75;40.45;59.92;;
38366;Laerm;943;51.568;6.998;2023-02-28T08:28:49;46.26;40.22;60.20;;
38366;Laerm;943;51.568;6.998;2023-02-28T08:31:18;60.13;43.37;81.54;;
38366;Laerm;943;51.568;6.998;2023-02-28T08:33:46;57.91;43.30;81.11;;
38366;Laerm;943;51.568;6.998;2023-02-28T08:36:18;52.24;42.08;69.96;;
38366;Laerm;943;51.568;6.998;2023-02-28T08:38:46;47.00;40.95;62.79;;
38366;Laerm;943;51.568;6.998;2023-02-28T08:41:14;51.09;40.23;69.40;;
38366;Laerm;943;51.568;6.998;2023-02-28T08:43:42;43.77;39.26;61.37;;
38366;Laerm;943;51.568;6.998;2023-02-28T08:46:14;45.35;38.74;60.69;;
38366;Laerm;943;51.568;6.998;2023-02-28T08:48:42;45.04;40.79;61.62;;
38366;Laerm;943;51.568;6.998;2023-02-28T08:51:18;45.13;40.26;57.44;;
38366;Laerm;943;51.568;6.998;2023-02-28T08:53:49;51.46;40.24;69.02;;
38366;Laerm;943;51.568;6.998;2023-02-28T08:56:17;49.69;39.88;72.26;;
38366;Laerm;943;51.568;6.998;2023-02-28T08:58:49;44.38;39.10;56.61;;
38366;Laerm;943;51.568;6.998;2023-02-28T09:01:28;47.01;42.44;58.62;;
38366;Laerm;943;51.568;6.998;2023-02-28T09:03:58;57.84;39.52;83.98;;
38366;Laerm;943;51.568;6.998;2023-02-28T09:06:28;47.11;40.19;62.93;;
38366;Laerm;943;51.568;6.998;2023-02-28T09:08:58;46.76;38.53;64.08;;
38366;Laerm;943;51.568;6.998;2023-02-28T09:11:29;49.97;40.46;67.04;;
38366;Laerm;943;51.568;6.998;2023-02-28T09:13:59;49.38;40.10;68.26;;
38366;Laerm;943;51.568;6.998;2023-02-28T09:16:28;47.62;40.40;65.74;;
38366;Laerm;943;51.568;6.998;2023-02-28T09:18:56;49.74;41.10;63.33;;
38366;Laerm;943;51.568;6.998;2023-02-28T09:21:24;45.45;40.86;62.49;;
38366;Laerm;943;51.568;6.998;2023-02-28T09:23:53;46.39;41.45;58.93;;
38366;Laerm;943;51.568;6.998;2023-02-28T09:26:27;49.73;41.84;74.30;;
38366;Laerm;943;51.568;6.998;2023-02-28T09:29:09;47.89;40.36;69.75;;
38366;Laerm;943;51.568;6.998;2023-02-28T09:31:38;48.66;40.08;70.76;;
38366;Laerm;943;51.568;6.998;2023-02-28T09:34:06;47.77;40.68;68.71;;
38366;Laerm;943;51.568;6.998;2023-02-28T09:36:34;52.31;42.79;71.81;;
38366;Laerm;943;51.568;6.998;2023-02-28T09:39:13;46.17;41.89;70.56;;
38366;Laerm;943;51.568;6.998;2023-02-28T09:41:51;46.69;41.48;54.49;;
38366;Laerm;943;51.568;6.998;2023-02-28T09:44:42;50.11;41.67;74.63;;
38366;Laerm;943;51.568;6.998;2023-02-28T09:47:41;50.86;42.42;68.96;;
38366;Laerm;943;51.568;6.998;2023-02-28T09:52:56;46.41;41.26;62.21;;
38366;Laerm;943;51.568;6.998;2023-02-28T09:55:42;51.69;40.56;78.47;;
38366;Laerm;943;51.568;6.998;2023-02-28T09:58:51;60.01;43.57;85.18;;
38366;Laerm;943;51.568;6.998;2023-02-28T10:01:54;54.27;43.48;81.19;;
38366;Laerm;943;51.568;6.998;2023-02-28T10:04:59;52.93;41.19;80.48;;
38366;Laerm;943;51.568;6.998;2023-02-28T10:08:13;50.69;42.23;74.01;;
38366;Laerm;943;51.568;6.998;2023-02-28T10:11:00;50.60;40.34;75.70;;
38366;Laerm;943;51.568;6.998;2023-02-28T10:14:01;58.92;40.46;84.82;;
38366;Laerm;943;51.568;6.998;2023-02-28T10:16:46;62.49;40.22;88.91;;
38366;Laerm;943;51.568;6.998;2023-02-28T10:19:56;50.73;41.87;66.71;;
38366;Laerm;943;51.568;6.998;2023-02-28T10:25:40;52.59;42.18;78.72;;
38366;Laerm;943;51.568;6.998;2023-02-28T10:28:13;55.62;41.63;77.05;;
38366;Laerm;943;51.568;6.998;2023-02-28T10:30:52;51.34;42.33;71.96;;
38366;Laerm;943;51.568;6.998;2023-02-28T10:33:34;63.43;42.25;85.07;;
38366;Laerm;943;51.568;6.998;2023-02-28T10:36:05;58.23;43.56;82.12;;
38366;Laerm;943;51.568;6.998;2023-02-28T10:38:40;58.93;44.76;81.28;;
38366;Laerm;943;51.568;6.998;2023-02-28T10:41:33;49.83;42.55;70.56;;
38366;Laerm;943;51.568;6.998;2023-02-28T10:44:23;56.89;43.83;85.19;;
38366;Laerm;943;51.568;6.998;2023-02-28T10:46:52;55.13;42.66;79.72;;
38366;Laerm;943;51.568;6.998;2023-02-28T10:49:29;57.01;41.45;83.26;;
38366;Laerm;943;51.568;6.998;2023-02-28T10:52:01;57.99;42.28;86.22;;
38366;Laerm;943;51.568;6.998;2023-02-28T10:54:36;59.37;43.17;80.25;;
38366;Laerm;943;51.568;6.998;2023-02-28T10:57:23;63.32;43.26;84.46;;
38366;Laerm;943;51.568;6.998;2023-02-28T11:02:46;56.67;42.82;78.42;;
38366;Laerm;943;51.568;6.998;2023-02-28T11:05:36;56.20;40.83;83.02;;
38366;Laerm;943;51.568;6.998;2023-02-28T11:08:17;61.00;43.51;83.72;;
38366;Laerm;943;51.568;6.998;2023-02-28T11:11:04;52.47;43.00;73.58;;
38366;Laerm;943;51.568;6.998;2023-02-28T11:13:36;52.12;42.38;78.88;;
38366;Laerm;943;51.568;6.998;2023-02-28T11:16:13;51.05;40.71;76.28;;
38366;Laerm;943;51.568;6.998;2023-02-28T11:18:54;61.23;43.95;84.48;;
38366;Laerm;943;51.568;6.998;2023-02-28T11:21:36;48.92;42.26;68.89;;
38366;Laerm;943;51.568;6.998;2023-02-28T11:24:43;59.25;42.41;82.81;;
38366;Laerm;943;51.568;6.998;2023-02-28T11:30:00;55.44;43.44;77.43;;
38366;Laerm;943;51.568;6.998;2023-02-28T11:32:31;53.36;43.23;75.42;;
38366;Laerm;943;51.568;6.998;2023-02-28T11:37:40;58.09;44.16;81.02;;
38366;Laerm;943;51.568;6.998;2023-02-28T11:40:42;64.92;41.91;89.78;;
38366;Laerm;943;51.568;6.998;2023-02-28T11:46:44;52.93;41.05;79.20;;
38366;Laerm;943;51.568;6.998;2023-02-28T11:55:36;52.22;41.18;78.92;;
38366;Laerm;943;51.568;6.998;2023-02-28T11:58:41;51.81;41.53;77.22;;
38366;Laerm;943;51.568;6.998;2023-02-28T12:05:46;61.84;42.41;82.78;;
38366;Laerm;943;51.568;6.998;2023-02-28T12:11:52;56.44;42.36;79.60;;
38366;Laerm;943;51.568;6.998;2023-02-28T12:21:26;49.96;40.81;78.33;;
38366;Laerm;943;51.568;6.998;2023-02-28T12:24:32;57.14;42.99;81.03;;
38366;Laerm;943;51.568;6.998;2023-02-28T12:27:17;56.94;43.44;81.83;;
38366;Laerm;943;51.568;6.998;2023-02-28T12:30:28;60.97;42.69;87.74;;
38366;Laerm;943;51.568;6.998;2023-02-28T12:33:14;55.12;42.11;77.60;;
38366;Laerm;943;51.568;6.998;2023-02-28T12:36:11;49.31;40.86;70.55;;
38366;Laerm;943;51.568;6.998;2023-02-28T12:42:10;51.58;42.00;68.60;;
38366;Laerm;943;51.568;6.998;2023-02-28T12:44:54;47.52;40.44;70.25;;
38366;Laerm;943;51.568;6.998;2023-02-28T12:47:24;47.61;41.54;67.43;;
38366;Laerm;943;51.568;6.998;2023-02-28T12:50:11;55.39;41.08;78.68;;
38366;Laerm;943;51.568;6.998;2023-02-28T12:53:46;44.74;40.19;64.43;;
38366;Laerm;943;51.568;6.998;2023-02-28T12:56:36;61.17;41.19;88.39;;
38366;Laerm;943;51.568;6.998;2023-02-28T12:59:48;45.31;39.61;56.64;;
38366;Laerm;943;51.568;6.998;2023-02-28T13:09:13;49.48;42.62;63.10;;
38366;Laerm;943;51.568;6.998;2023-02-28T13:11:54;57.19;43.16;84.23;;
38366;Laerm;943;51.568;6.998;2023-02-28T13:14:37;49.19;41.55;78.20;;
38366;Laerm;943;51.568;6.998;2023-02-28T13:22:52;56.45;43.75;79.89;;
38366;Laerm;943;51.568;6.998;2023-02-28T13:27:56;58.05;45.36;81.15;;
38366;Laerm;943;51.568;6.998;2023-02-28T13:33:36;63.48;44.08;84.69;;
38366;Laerm;943;51.568;6.998;2023-02-28T13:38:56;52.72;45.58;82.05;;
38366;Laerm;943;51.568;6.998;2023-02-28T13:44:23;54.87;44.97;79.79;;
38366;Laerm;943;51.568;6.998;2023-02-28T13:52:20;51.50;43.45;69.48;;
38366;Laerm;943;51.568;6.998;2023-02-28T13:55:18;47.24;42.62;62.66;;
38366;Laerm;943;51.568;6.998;2023-02-28T14:01:36;59.40;43.79;85.85;;
38366;Laerm;943;51.568;6.998;2023-02-28T14:05:12;52.01;43.26;73.79;;
38366;Laerm;943;51.568;6.998;2023-02-28T14:08:02;49.72;41.85;64.35;;
38366;Laerm;943;51.568;6.998;2023-02-28T14:11:03;51.66;42.51;75.64;;
38366;Laerm;943;51.568;6.998;2023-02-28T14:13:46;45.81;41.71;52.29;;
38366;Laerm;943;51.568;6.998;2023-02-28T14:16:27;45.71;40.84;61.46;;
38366;Laerm;943;51.568;6.998;2023-02-28T14:19:27;48.73;41.50;68.57;;
38366;Laerm;943;51.568;6.998;2023-02-28T14:33:01;50.82;42.58;74.90;;
38366;Laerm;943;51.568;6.998;2023-02-28T14:36:32;53.47;41.36;80.96;;
38366;Laerm;943;51.568;6.998;2023-02-28T14:39:14;55.65;41.78;79.50;;
38366;Laerm;943;51.568;6.998;2023-02-28T14:41:45;53.46;43.44;75.21;;
38366;Laerm;943;51.568;6.998;2023-02-28T14:44:27;53.51;42.57;81.31;;
38366;Laerm;943;51.568;6.998;2023-02-28T14:47:01;47.85;42.84;66.95;;
38366;Laerm;943;51.568;6.998;2023-02-28T14:49:45;57.25;43.28;85.59;;
38366;Laerm;943;51.568;6.998;2023-02-28T14:52:26;49.05;41.05;74.26;;
38366;Laerm;943;51.568;6.998;2023-02-28T14:55:11;56.47;42.13;78.97;;
38366;Laerm;943;51.568;6.998;2023-02-28T14:57:57;54.87;42.86;78.44;;
38366;Laerm;943;51.568;6.998;2023-02-28T15:00:40;56.40;43.14;82.53;;
38366;Laerm;943;51.568;6.998;2023-02-28T15:03:32;49.70;43.16;70.57;;
38366;Laerm;943;51.568;6.998;2023-02-28T15:06:15;58.44;43.00;84.48;;
38366;Laerm;943;51.568;6.998;2023-02-28T15:09:15;48.26;41.97;70.12;;
38366;Laerm;943;51.568;6.998;2023-02-28T15:11:49;55.27;41.62;77.33;;
38366;Laerm;943;51.568;6.998;2023-02-28T15:14:22;58.45;41.90;84.11;;
38366;Laerm;943;51.568;6.998;2023-02-28T15:17:07;52.95;40.72;76.83;;
38366;Laerm;943;51.568;6.998;2023-02-28T15:19:47;57.05;43.64;80.74;;
38366;Laerm;943;51.568;6.998;2023-02-28T15:22:29;50.09;42.65;64.05;;
38366;Laerm;943;51.568;6.998;2023-02-28T15:25:06;53.46;40.30;78.30;;
38366;Laerm;943;51.568;6.998;2023-02-28T15:27:53;53.49;43.60;74.77;;
38366;Laerm;943;51.568;6.998;2023-02-28T15:30:32;50.78;41.10;77.41;;
38366;Laerm;943;51.568;6.998;2023-02-28T15:33:18;56.82;40.58;83.03;;
38366;Laerm;943;51.568;6.998;2023-02-28T15:35:47;52.77;43.43;74.05;;
38366;Laerm;943;51.568;6.998;2023-02-28T15:38:24;61.04;41.29;81.82;;
38366;Laerm;943;51.568;6.998;2023-02-28T15:40:58;53.35;42.60;84.49;;
38366;Laerm;943;51.568;6.998;2023-02-28T15:43:38;54.23;43.47;77.36;;
38366;Laerm;943;51.568;6.998;2023-02-28T15:46:11;53.10;41.97;75.93;;
38366;Laerm;943;51.568;6.998;2023-02-28T15:48:56;49.92;42.24;75.80;;
38366;Laerm;943;51.568;6.998;2023-02-28T15:51:38;48.28;41.11;69.01;;
38366;Laerm;943;51.568;6.998;2023-02-28T15:54:24;47.17;41.46;59.65;;
38366;Laerm;943;51.568;6.998;2023-02-28T15:56:57;48.79;41.98;76.57;;
38366;Laerm;943;51.568;6.998;2023-02-28T15:59:31;47.28;41.15;55.99;;
38366;Laerm;943;51.568;6.998;2023-02-28T16:02:32;49.88;41.18;61.99;;
38366;Laerm;943;51.568;6.998;2023-02-28T16:07:43;49.02;42.35;71.57;;
38366;Laerm;943;51.568;6.998;2023-02-28T16:10:13;48.90;42.45;64.37;;
38366;Laerm;943;51.568;6.998;2023-02-28T16:12:42;49.70;43.88;65.86;;
38366;Laerm;943;51.568;6.998;2023-02-28T16:15:28;48.49;41.05;73.60;;
38366;Laerm;943;51.568;6.998;2023-02-28T16:17:58;47.48;41.01;66.35;;
38366;Laerm;943;51.568;6.998;2023-02-28T16:20:30;50.50;41.73;74.19;;
38366;Laerm;943;51.568;6.998;2023-02-28T16:22:59;50.65;41.86;73.18;;
38366;Laerm;943;51.568;6.998;2023-02-28T16:25:42;50.74;41.15;79.58;;
38366;Laerm;943;51.568;6.998;2023-02-28T16:28:33;49.75;42.30;69.92;;
38366;Laerm;943;51.568;6.998;2023-02-28T16:31:06;53.58;42.20;79.93;;
38366;Laerm;943;51.568;6.998;2023-02-28T16:33:35;48.32;41.96;60.76;;
38366;Laerm;943;51.568;6.998;2023-02-28T16:36:03;50.97;41.38;76.19;;
38366;Laerm;943;51.568;6.998;2023-02-28T16:38:31;49.37;41.71;66.53;;
38366;Laerm;943;51.568;6.998;2023-02-28T16:41:01;52.27;42.78;73.89;;
38366;Laerm;943;51.568;6.998;2023-02-28T16:43:29;45.91;42.18;61.32;;
38366;Laerm;943;51.568;6.998;2023-02-28T16:45:58;46.93;40.73;55.16;;
38366;Laerm;943;51.568;6.998;2023-02-28T16:48:28;48.77;42.48;62.05;;
38366;Laerm;943;51.568;6.998;2023-02-28T16:50:57;48.36;43.91;60.20;;
38366;Laerm;943;51.568;6.998;2023-02-28T16:53:25;52.11;42.71;78.58;;
38366;Laerm;943;51.568;6.998;2023-02-28T16:55:52;49.36;42.52;68.32;;
38366;Laerm;943;51.568;6.998;2023-02-28T16:58:21;47.17;42.87;55.10;;
38366;Laerm;943;51.568;6.998;2023-02-28T17:00:51;47.16;42.35;53.83;;
38366;Laerm;943;51.568;6.998;2023-02-28T17:03:27;47.69;43.00;58.94;;